sensor_id;sensor_type;location;lat;lon;timestamp;temperature;humidity
1225;DHT22;602;48.000;7.840;2023-12-04T00:02:05;0.50;99.90
1225;DHT22;602;48.000;7.840;2023-12-04T00:04:32;0.50;99.90
1225;DHT22;602;48.000;7.840;2023-12-04T00:06:59;0.40;99.90
1225;DHT22;602;48.000;7.840;2023-12-04T00:09:26;0.40;99.90
1225;DHT22;602;48.000;7.840;2023-12-04T00:11:53;0.40;99.90
1225;DHT22;602;48.000;7.840;2023-12-04T00:14:21;0.40;99.90
1225;DHT22;602;48.000;7.840;2023-12-04T00:16:47;0.40;99.90
1225;DHT22;602;48.000;7.840;2023-12-04T00:19:14;0.40;99.90
1225;DHT22;602;48.000;7.840;2023-12-04T00:21:41;0.30;99.90
1225;DHT22;602;48.000;7.840;2023-12-04T00:24:08;0.30;99.90
1225;DHT22;602;48.000;7.840;2023-12-04T00:26:35;0.20;99.90
1225;DHT22;602;48.000;7.840;2023-12-04T00:29:02;0.30;99.90
1225;DHT22;602;48.000;7.840;2023-12-04T00:31:30;0.30;99.90
1225;DHT22;602;48.000;7.840;2023-12-04T00:33:57;0.00;99.90
1225;DHT22;602;48.000;7.840;2023-12-04T00:36:24;0.10;99.90
1225;DHT22;602;48.000;7.840;2023-12-04T00:38:51;0.20;99.90
1225;DHT22;602;48.000;7.840;2023-12-04T00:41:18;0.00;99.90
1225;DHT22;602;48.000;7.840;2023-12-04T00:43:45;-0.10;99.90
1225;DHT22;602;48.000;7.840;2023-12-04T00:46:11;-0.10;99.90
1225;DHT22;602;48.000;7.840;2023-12-04T00:48:40;0.00;99.90
1225;DHT22;602;48.000;7.840;2023-12-04T00:51:07;0.00;99.90
1225;DHT22;602;48.000;7.840;2023-12-04T00:53:33;0.10;99.90
1225;DHT22;602;48.000;7.840;2023-12-04T00:56:00;0.10;99.90
1225;DHT22;602;48.000;7.840;2023-12-04T00:58:27;0.30;99.90
1225;DHT22;602;48.000;7.840;2023-12-04T01:00:54;0.40;99.90
1225;DHT22;602;48.000;7.840;2023-12-04T01:03:22;0.40;99.90
1225;DHT22;602;48.000;7.840;2023-12-04T01:05:53;0.40;99.90
1225;DHT22;602;48.000;7.840;2023-12-04T01:08:20;0.40;99.90
1225;DHT22;602;48.000;7.840;2023-12-04T01:10:46;0.50;99.90
1225;DHT22;602;48.000;7.840;2023-12-04T01:13:14;0.40;99.90
1225;DHT22;602;48.000;7.840;2023-12-04T01:15:40;0.40;99.90
1225;DHT22;602;48.000;7.840;2023-12-04T01:18:08;0.30;99.90
1225;DHT22;602;48.000;7.840;2023-12-04T01:20:35;0.30;99.90
1225;DHT22;602;48.000;7.840;2023-12-04T01:23:03;0.30;99.90
1225;DHT22;602;48.000;7.840;2023-12-04T01:25:31;0.40;99.90
1225;DHT22;602;48.000;7.840;2023-12-04T01:27:58;0.40;99.90
1225;DHT22;602;48.000;7.840;2023-12-04T01:30:25;0.40;99.90
1225;DHT22;602;48.000;7.840;2023-12-04T01:32:52;0.50;99.90
1225;DHT22;602;48.000;7.840;2023-12-04T01:35:19;0.50;99.90
1225;DHT22;602;48.000;7.840;2023-12-04T01:37:45;0.40;99.90
1225;DHT22;602;48.000;7.840;2023-12-04T01:40:14;0.30;99.90
1225;DHT22;602;48.000;7.840;2023-12-04T01:42:42;0.20;99.90
1225;DHT22;602;48.000;7.840;2023-12-04T01:45:09;0.20;99.90
1225;DHT22;602;48.000;7.840;2023-12-04T01:47:36;0.30;99.90
1225;DHT22;602;48.000;7.840;2023-12-04T01:50:04;0.20;99.90
1225;DHT22;602;48.000;7.840;2023-12-04T01:52:31;0.10;99.90
1225;DHT22;602;48.000;7.840;2023-12-04T01:54:58;0.20;99.90
1225;DHT22;602;48.000;7.840;2023-12-04T01:57:26;0.20;99.90
1225;DHT22;602;48.000;7.840;2023-12-04T01:59:54;0.20;99.90
1225;DHT22;602;48.000;7.840;2023-12-04T02:02:23;0.30;99.90
1225;DHT22;602;48.000;7.840;2023-12-04T02:04:49;0.30;99.90
1225;DHT22;602;48.000;7.840;2023-12-04T02:07:16;0.40;99.90
1225;DHT22;602;48.000;7.840;2023-12-04T02:09:43;0.30;99.90
1225;DHT22;602;48.000;7.840;2023-12-04T02:12:10;0.20;99.90
1225;DHT22;602;48.000;7.840;2023-12-04T02:14:38;0.20;99.90
1225;DHT22;602;48.000;7.840;2023-12-04T02:17:06;0.20;99.90
1225;DHT22;602;48.000;7.840;2023-12-04T02:19:33;0.20;99.90
1225;DHT22;602;48.000;7.840;2023-12-04T02:22:00;0.10;99.90
1225;DHT22;602;48.000;7.840;2023-12-04T02:24:28;0.00;99.90
1225;DHT22;602;48.000;7.840;2023-12-04T02:27:02;0.10;99.90
1225;DHT22;602;48.000;7.840;2023-12-04T02:29:34;0.20;99.90
1225;DHT22;602;48.000;7.840;2023-12-04T02:32:05;0.30;99.90
1225;DHT22;602;48.000;7.840;2023-12-04T02:34:34;0.40;99.90
1225;DHT22;602;48.000;7.840;2023-12-04T02:37:03;0.40;99.90
1225;DHT22;602;48.000;7.840;2023-12-04T02:39:32;0.40;99.90
1225;DHT22;602;48.000;7.840;2023-12-04T02:41:59;0.40;99.90
1225;DHT22;602;48.000;7.840;2023-12-04T02:44:26;0.40;99.90
1225;DHT22;602;48.000;7.840;2023-12-04T02:46:52;0.40;99.90
1225;DHT22;602;48.000;7.840;2023-12-04T02:49:19;0.30;99.90
1225;DHT22;602;48.000;7.840;2023-12-04T02:51:46;0.30;99.90
1225;DHT22;602;48.000;7.840;2023-12-04T02:54:13;0.30;99.90
1225;DHT22;602;48.000;7.840;2023-12-04T02:56:41;0.30;99.90
1225;DHT22;602;48.000;7.840;2023-12-04T02:59:08;0.30;99.90
1225;DHT22;602;48.000;7.840;2023-12-04T03:01:35;0.10;99.90
1225;DHT22;602;48.000;7.840;2023-12-04T03:04:01;0.20;99.90
1225;DHT22;602;48.000;7.840;2023-12-04T03:06:28;0.20;99.90
1225;DHT22;602;48.000;7.840;2023-12-04T03:08:55;0.30;99.90
1225;DHT22;602;48.000;7.840;2023-12-04T03:11:23;0.20;99.90
1225;DHT22;602;48.000;7.840;2023-12-04T03:13:51;0.20;99.90
1225;DHT22;602;48.000;7.840;2023-12-04T03:16:18;0.10;99.90
1225;DHT22;602;48.000;7.840;2023-12-04T03:18:45;0.10;99.90
1225;DHT22;602;48.000;7.840;2023-12-04T03:21:12;0.10;99.90
1225;DHT22;602;48.000;7.840;2023-12-04T03:23:39;0.00;99.90
1225;DHT22;602;48.000;7.840;2023-12-04T03:26:06;0.10;99.90
1225;DHT22;602;48.000;7.840;2023-12-04T03:28:33;0.20;99.90
1225;DHT22;602;48.000;7.840;2023-12-04T03:31:01;0.10;99.90
1225;DHT22;602;48.000;7.840;2023-12-04T03:33:28;0.10;99.90
1225;DHT22;602;48.000;7.840;2023-12-04T03:35:55;0.10;99.90
1225;DHT22;602;48.000;7.840;2023-12-04T03:38:22;0.10;99.90
1225;DHT22;602;48.000;7.840;2023-12-04T03:40:49;0.10;99.90
1225;DHT22;602;48.000;7.840;2023-12-04T03:43:16;0.10;99.90
1225;DHT22;602;48.000;7.840;2023-12-04T03:45:43;0.00;99.90
1225;DHT22;602;48.000;7.840;2023-12-04T03:48:11;-0.10;99.90
1225;DHT22;602;48.000;7.840;2023-12-04T03:50:38;-0.10;99.90
1225;DHT22;602;48.000;7.840;2023-12-04T03:53:05;-0.20;99.90
1225;DHT22;602;48.000;7.840;2023-12-04T03:55:31;-0.10;99.90
1225;DHT22;602;48.000;7.840;2023-12-04T03:57:58;0.00;99.90
1225;DHT22;602;48.000;7.840;2023-12-04T04:00:25;0.10;99.90
1225;DHT22;602;48.000;7.840;2023-12-04T04:02:52;0.10;99.90
1225;DHT22;602;48.000;7.840;2023-12-04T04:05:20;0.10;99.90
1225;DHT22;602;48.000;7.840;2023-12-04T04:07:47;0.20;99.90
1225;DHT22;602;48.000;7.840;2023-12-04T04:10:14;0.20;99.90
1225;DHT22;602;48.000;7.840;2023-12-04T04:12:41;0.30;99.90
1225;DHT22;602;48.000;7.840;2023-12-04T04:15:08;0.20;99.90
1225;DHT22;602;48.000;7.840;2023-12-04T04:17:35;0.40;99.90
1225;DHT22;602;48.000;7.840;2023-12-04T04:20:03;0.40;99.90
1225;DHT22;602;48.000;7.840;2023-12-04T04:22:31;0.40;99.90
1225;DHT22;602;48.000;7.840;2023-12-04T04:25:00;0.50;99.90
1225;DHT22;602;48.000;7.840;2023-12-04T04:27:27;0.60;99.90
1225;DHT22;602;48.000;7.840;2023-12-04T04:29:53;0.50;99.90
1225;DHT22;602;48.000;7.840;2023-12-04T04:32:20;0.60;99.90
1225;DHT22;602;48.000;7.840;2023-12-04T04:34:47;0.80;99.90
1225;DHT22;602;48.000;7.840;2023-12-04T04:37:14;0.90;99.90
1225;DHT22;602;48.000;7.840;2023-12-04T04:39:42;0.90;99.90
1225;DHT22;602;48.000;7.840;2023-12-04T04:42:09;1.10;99.90
1225;DHT22;602;48.000;7.840;2023-12-04T04:44:36;1.10;99.90
1225;DHT22;602;48.000;7.840;2023-12-04T04:47:03;1.00;99.90
1225;DHT22;602;48.000;7.840;2023-12-04T04:49:30;0.80;99.90
1225;DHT22;602;48.000;7.840;2023-12-04T04:51:57;0.80;99.90
1225;DHT22;602;48.000;7.840;2023-12-04T04:54:24;0.90;99.90
1225;DHT22;602;48.000;7.840;2023-12-04T04:56:52;0.90;99.90
1225;DHT22;602;48.000;7.840;2023-12-04T04:59:18;0.70;99.90
1225;DHT22;602;48.000;7.840;2023-12-04T05:01:44;0.80;99.90
1225;DHT22;602;48.000;7.840;2023-12-04T05:04:11;0.80;99.90
1225;DHT22;602;48.000;7.840;2023-12-04T05:06:38;0.80;99.90
1225;DHT22;602;48.000;7.840;2023-12-04T05:09:05;0.70;99.90
1225;DHT22;602;48.000;7.840;2023-12-04T05:11:32;0.80;99.90
1225;DHT22;602;48.000;7.840;2023-12-04T05:14:00;0.80;99.90
1225;DHT22;602;48.000;7.840;2023-12-04T05:16:27;0.70;99.90
1225;DHT22;602;48.000;7.840;2023-12-04T05:18:53;0.70;99.90
1225;DHT22;602;48.000;7.840;2023-12-04T05:21:20;0.70;99.90
1225;DHT22;602;48.000;7.840;2023-12-04T05:23:47;0.60;99.90
1225;DHT22;602;48.000;7.840;2023-12-04T05:26:14;0.60;99.90
1225;DHT22;602;48.000;7.840;2023-12-04T05:28:41;0.70;99.90
1225;DHT22;602;48.000;7.840;2023-12-04T05:31:09;0.70;99.90
1225;DHT22;602;48.000;7.840;2023-12-04T05:33:36;0.70;99.90
1225;DHT22;602;48.000;7.840;2023-12-04T05:36:03;0.80;99.90
1225;DHT22;602;48.000;7.840;2023-12-04T05:38:32;0.80;99.90
1225;DHT22;602;48.000;7.840;2023-12-04T05:40:59;0.80;99.90
1225;DHT22;602;48.000;7.840;2023-12-04T05:43:26;0.80;99.90
1225;DHT22;602;48.000;7.840;2023-12-04T05:45:52;0.60;99.90
1225;DHT22;602;48.000;7.840;2023-12-04T05:48:20;0.50;99.90
1225;DHT22;602;48.000;7.840;2023-12-04T05:50:47;0.50;99.90
1225;DHT22;602;48.000;7.840;2023-12-04T05:53:15;0.40;99.90
1225;DHT22;602;48.000;7.840;2023-12-04T05:55:43;0.50;99.90
1225;DHT22;602;48.000;7.840;2023-12-04T05:58:11;0.60;99.90
1225;DHT22;602;48.000;7.840;2023-12-04T06:00:38;0.60;99.90
1225;DHT22;602;48.000;7.840;2023-12-04T06:03:06;0.70;99.90
1225;DHT22;602;48.000;7.840;2023-12-04T06:05:34;0.80;99.90
1225;DHT22;602;48.000;7.840;2023-12-04T06:08:01;0.80;99.90
1225;DHT22;602;48.000;7.840;2023-12-04T06:10:28;0.90;99.90
1225;DHT22;602;48.000;7.840;2023-12-04T06:12:54;0.90;99.90
1225;DHT22;602;48.000;7.840;2023-12-04T06:15:21;0.80;99.90
1225;DHT22;602;48.000;7.840;2023-12-04T06:17:48;0.80;99.90
1225;DHT22;602;48.000;7.840;2023-12-04T06:20:15;0.60;99.90
1225;DHT22;602;48.000;7.840;2023-12-04T06:22:44;0.70;99.90
1225;DHT22;602;48.000;7.840;2023-12-04T06:25:12;0.60;99.90
1225;DHT22;602;48.000;7.840;2023-12-04T06:27:39;0.70;99.90
1225;DHT22;602;48.000;7.840;2023-12-04T06:30:07;0.80;99.90
1225;DHT22;602;48.000;7.840;2023-12-04T06:32:34;0.70;99.90
1225;DHT22;602;48.000;7.840;2023-12-04T06:35:01;0.70;99.90
1225;DHT22;602;48.000;7.840;2023-12-04T06:37:29;0.60;99.90
1225;DHT22;602;48.000;7.840;2023-12-04T06:39:59;0.60;99.90
1225;DHT22;602;48.000;7.840;2023-12-04T06:42:28;0.60;99.90
1225;DHT22;602;48.000;7.840;2023-12-04T06:44:55;0.60;99.90
1225;DHT22;602;48.000;7.840;2023-12-04T06:47:23;0.60;99.90
1225;DHT22;602;48.000;7.840;2023-12-04T06:49:50;0.50;99.90
1225;DHT22;602;48.000;7.840;2023-12-04T06:52:17;0.40;99.90
1225;DHT22;602;48.000;7.840;2023-12-04T06:54:43;0.40;99.90
1225;DHT22;602;48.000;7.840;2023-12-04T06:57:12;0.40;99.90
1225;DHT22;602;48.000;7.840;2023-12-04T06:59:40;0.30;99.90
1225;DHT22;602;48.000;7.840;2023-12-04T07:02:07;0.10;99.90
1225;DHT22;602;48.000;7.840;2023-12-04T07:04:34;0.20;99.90
1225;DHT22;602;48.000;7.840;2023-12-04T07:07:01;0.20;99.90
1225;DHT22;602;48.000;7.840;2023-12-04T07:09:30;0.20;99.90
1225;DHT22;602;48.000;7.840;2023-12-04T07:11:57;0.00;99.90
1225;DHT22;602;48.000;7.840;2023-12-04T07:14:26;0.00;99.90
1225;DHT22;602;48.000;7.840;2023-12-04T07:16:52;-0.10;99.90
1225;DHT22;602;48.000;7.840;2023-12-04T07:19:19;-0.10;99.90
1225;DHT22;602;48.000;7.840;2023-12-04T07:21:47;0.10;99.90
1225;DHT22;602;48.000;7.840;2023-12-04T07:24:14;0.10;99.90
1225;DHT22;602;48.000;7.840;2023-12-04T07:26:41;-0.10;99.90
1225;DHT22;602;48.000;7.840;2023-12-04T07:29:08;-0.10;99.90
1225;DHT22;602;48.000;7.840;2023-12-04T07:31:37;0.00;99.90
1225;DHT22;602;48.000;7.840;2023-12-04T07:34:04;0.00;99.90
1225;DHT22;602;48.000;7.840;2023-12-04T07:36:31;-0.10;99.90
1225;DHT22;602;48.000;7.840;2023-12-04T07:38:58;-0.10;99.90
1225;DHT22;602;48.000;7.840;2023-12-04T07:41:24;-0.10;99.90
1225;DHT22;602;48.000;7.840;2023-12-04T07:43:51;0.10;99.90
1225;DHT22;602;48.000;7.840;2023-12-04T07:46:20;0.20;99.90
1225;DHT22;602;48.000;7.840;2023-12-04T07:48:48;0.10;99.90
1225;DHT22;602;48.000;7.840;2023-12-04T07:51:15;0.10;99.90
1225;DHT22;602;48.000;7.840;2023-12-04T07:53:42;0.10;99.90
1225;DHT22;602;48.000;7.840;2023-12-04T07:56:11;0.20;99.90
1225;DHT22;602;48.000;7.840;2023-12-04T07:58:38;0.30;99.90
1225;DHT22;602;48.000;7.840;2023-12-04T08:01:05;0.40;99.90
1225;DHT22;602;48.000;7.840;2023-12-04T08:03:32;0.50;99.90
1225;DHT22;602;48.000;7.840;2023-12-04T08:06:00;0.60;99.90
1225;DHT22;602;48.000;7.840;2023-12-04T08:08:28;0.70;99.90
1225;DHT22;602;48.000;7.840;2023-12-04T08:10:56;0.80;99.90
1225;DHT22;602;48.000;7.840;2023-12-04T08:13:23;1.00;99.90
1225;DHT22;602;48.000;7.840;2023-12-04T08:15:50;1.10;99.90
1225;DHT22;602;48.000;7.840;2023-12-04T08:18:17;1.00;99.90
1225;DHT22;602;48.000;7.840;2023-12-04T08:20:44;1.00;99.90
1225;DHT22;602;48.000;7.840;2023-12-04T08:23:13;0.90;99.90
1225;DHT22;602;48.000;7.840;2023-12-04T08:25:40;0.90;99.90
1225;DHT22;602;48.000;7.840;2023-12-04T08:28:07;0.90;99.90
1225;DHT22;602;48.000;7.840;2023-12-04T08:30:34;0.90;99.90
1225;DHT22;602;48.000;7.840;2023-12-04T08:33:01;0.90;99.90
1225;DHT22;602;48.000;7.840;2023-12-04T08:35:28;0.90;99.90
1225;DHT22;602;48.000;7.840;2023-12-04T08:37:55;0.90;99.90
1225;DHT22;602;48.000;7.840;2023-12-04T08:40:24;1.00;99.90
1225;DHT22;602;48.000;7.840;2023-12-04T08:42:51;1.00;99.90
1225;DHT22;602;48.000;7.840;2023-12-04T08:45:18;0.90;99.90
1225;DHT22;602;48.000;7.840;2023-12-04T08:47:45;0.90;99.90
1225;DHT22;602;48.000;7.840;2023-12-04T08:50:12;0.80;99.90
1225;DHT22;602;48.000;7.840;2023-12-04T08:52:39;0.90;99.90
1225;DHT22;602;48.000;7.840;2023-12-04T08:55:07;0.90;99.90
1225;DHT22;602;48.000;7.840;2023-12-04T08:57:36;1.00;99.90
1225;DHT22;602;48.000;7.840;2023-12-04T09:00:03;1.10;99.90
1225;DHT22;602;48.000;7.840;2023-12-04T09:02:31;1.20;99.90
1225;DHT22;602;48.000;7.840;2023-12-04T09:04:58;1.20;99.90
1225;DHT22;602;48.000;7.840;2023-12-04T09:07:24;1.30;99.90
1225;DHT22;602;48.000;7.840;2023-12-04T09:09:51;1.40;99.90
1225;DHT22;602;48.000;7.840;2023-12-04T09:12:18;1.50;99.90
1225;DHT22;602;48.000;7.840;2023-12-04T09:14:47;1.60;99.90
1225;DHT22;602;48.000;7.840;2023-12-04T09:17:14;1.80;99.90
1225;DHT22;602;48.000;7.840;2023-12-04T09:19:41;1.70;99.90
1225;DHT22;602;48.000;7.840;2023-12-04T09:22:08;1.70;99.90
1225;DHT22;602;48.000;7.840;2023-12-04T09:24:35;1.80;99.90
1225;DHT22;602;48.000;7.840;2023-12-04T09:27:02;1.90;99.90
1225;DHT22;602;48.000;7.840;2023-12-04T09:29:31;1.80;99.90
1225;DHT22;602;48.000;7.840;2023-12-04T09:31:59;2.00;99.90
1225;DHT22;602;48.000;7.840;2023-12-04T09:34:26;2.00;99.90
1225;DHT22;602;48.000;7.840;2023-12-04T09:36:53;2.00;99.90
1225;DHT22;602;48.000;7.840;2023-12-04T09:39:20;2.10;99.90
1225;DHT22;602;48.000;7.840;2023-12-04T09:41:47;2.00;99.90
1225;DHT22;602;48.000;7.840;2023-12-04T09:44:14;1.90;99.90
1225;DHT22;602;48.000;7.840;2023-12-04T09:46:42;2.00;99.90
1225;DHT22;602;48.000;7.840;2023-12-04T09:49:11;2.00;99.90
1225;DHT22;602;48.000;7.840;2023-12-04T09:51:38;1.90;99.90
1225;DHT22;602;48.000;7.840;2023-12-04T09:54:05;2.00;99.90
1225;DHT22;602;48.000;7.840;2023-12-04T09:56:35;2.00;99.90
1225;DHT22;602;48.000;7.840;2023-12-04T09:59:05;2.20;99.90
1225;DHT22;602;48.000;7.840;2023-12-04T10:01:33;2.30;99.90
1225;DHT22;602;48.000;7.840;2023-12-04T10:04:02;2.40;99.90
1225;DHT22;602;48.000;7.840;2023-12-04T10:06:32;2.40;99.90
1225;DHT22;602;48.000;7.840;2023-12-04T10:08:58;2.50;99.90
1225;DHT22;602;48.000;7.840;2023-12-04T10:11:25;2.60;99.90
1225;DHT22;602;48.000;7.840;2023-12-04T10:13:54;2.70;99.90
1225;DHT22;602;48.000;7.840;2023-12-04T10:16:33;2.80;99.90
1225;DHT22;602;48.000;7.840;2023-12-04T10:19:14;2.80;99.90
1225;DHT22;602;48.000;7.840;2023-12-04T10:21:44;2.80;99.90
1225;DHT22;602;48.000;7.840;2023-12-04T10:24:12;3.00;99.90
1225;DHT22;602;48.000;7.840;2023-12-04T10:26:49;3.00;99.90
1225;DHT22;602;48.000;7.840;2023-12-04T10:29:16;3.10;99.90
1225;DHT22;602;48.000;7.840;2023-12-04T10:31:43;3.20;99.90
1225;DHT22;602;48.000;7.840;2023-12-04T10:34:10;3.30;99.90
1225;DHT22;602;48.000;7.840;2023-12-04T10:36:37;3.30;99.90
1225;DHT22;602;48.000;7.840;2023-12-04T10:39:06;3.50;99.90
1225;DHT22;602;48.000;7.840;2023-12-04T10:41:33;3.60;99.90
1225;DHT22;602;48.000;7.840;2023-12-04T10:44:00;3.70;99.90
1225;DHT22;602;48.000;7.840;2023-12-04T10:46:27;3.90;99.90
1225;DHT22;602;48.000;7.840;2023-12-04T10:48:56;4.00;99.90
1225;DHT22;602;48.000;7.840;2023-12-04T10:51:24;4.10;99.90
1225;DHT22;602;48.000;7.840;2023-12-04T10:53:55;4.10;99.90
1225;DHT22;602;48.000;7.840;2023-12-04T10:56:27;4.00;99.90
1225;DHT22;602;48.000;7.840;2023-12-04T10:58:58;4.00;99.90
1225;DHT22;602;48.000;7.840;2023-12-04T11:01:27;3.80;99.90
1225;DHT22;602;48.000;7.840;2023-12-04T11:03:56;3.80;99.90
1225;DHT22;602;48.000;7.840;2023-12-04T11:06:26;3.60;99.90
1225;DHT22;602;48.000;7.840;2023-12-04T11:08:56;3.60;99.90
1225;DHT22;602;48.000;7.840;2023-12-04T11:11:30;3.50;99.90
1225;DHT22;602;48.000;7.840;2023-12-04T11:14:01;3.30;99.90
1225;DHT22;602;48.000;7.840;2023-12-04T11:16:32;3.40;99.90
1225;DHT22;602;48.000;7.840;2023-12-04T11:19:03;3.40;99.90
1225;DHT22;602;48.000;7.840;2023-12-04T11:21:34;3.50;99.90
1225;DHT22;602;48.000;7.840;2023-12-04T11:24:02;3.60;99.90
1225;DHT22;602;48.000;7.840;2023-12-04T11:26:31;3.40;99.90
1225;DHT22;602;48.000;7.840;2023-12-04T11:28:59;3.40;99.90
1225;DHT22;602;48.000;7.840;2023-12-04T11:31:26;3.40;99.90
1225;DHT22;602;48.000;7.840;2023-12-04T11:34:01;3.60;99.90
1225;DHT22;602;48.000;7.840;2023-12-04T11:36:28;3.60;99.90
1225;DHT22;602;48.000;7.840;2023-12-04T11:38:55;3.60;99.90
1225;DHT22;602;48.000;7.840;2023-12-04T11:41:24;3.70;99.90
1225;DHT22;602;48.000;7.840;2023-12-04T11:43:55;3.80;99.90
1225;DHT22;602;48.000;7.840;2023-12-04T11:46:23;3.90;99.90
1225;DHT22;602;48.000;7.840;2023-12-04T11:48:51;4.00;99.90
1225;DHT22;602;48.000;7.840;2023-12-04T11:51:45;4.10;99.90
1225;DHT22;602;48.000;7.840;2023-12-04T11:54:14;4.10;99.90
1225;DHT22;602;48.000;7.840;2023-12-04T11:56:49;4.20;99.90
1225;DHT22;602;48.000;7.840;2023-12-04T11:59:24;4.30;99.90
1225;DHT22;602;48.000;7.840;2023-12-04T12:01:52;4.30;99.90
1225;DHT22;602;48.000;7.840;2023-12-04T12:04:20;4.30;99.90
1225;DHT22;602;48.000;7.840;2023-12-04T12:06:47;4.40;99.90
1225;DHT22;602;48.000;7.840;2023-12-04T12:09:14;4.60;99.90
1225;DHT22;602;48.000;7.840;2023-12-04T12:11:41;4.60;99.90
1225;DHT22;602;48.000;7.840;2023-12-04T12:14:08;4.70;99.90
1225;DHT22;602;48.000;7.840;2023-12-04T12:16:36;4.80;99.90
1225;DHT22;602;48.000;7.840;2023-12-04T12:19:03;5.00;99.90
1225;DHT22;602;48.000;7.840;2023-12-04T12:21:30;5.00;99.90
1225;DHT22;602;48.000;7.840;2023-12-04T12:23:57;4.90;99.90
1225;DHT22;602;48.000;7.840;2023-12-04T12:26:24;5.10;99.90
1225;DHT22;602;48.000;7.840;2023-12-04T12:28:52;4.90;99.90
1225;DHT22;602;48.000;7.840;2023-12-04T12:31:18;4.80;99.90
1225;DHT22;602;48.000;7.840;2023-12-04T12:33:47;4.90;99.90
1225;DHT22;602;48.000;7.840;2023-12-04T12:36:14;5.00;99.90
1225;DHT22;602;48.000;7.840;2023-12-04T12:38:43;5.20;99.90
1225;DHT22;602;48.000;7.840;2023-12-04T12:41:15;5.40;99.90
1225;DHT22;602;48.000;7.840;2023-12-04T12:43:42;5.50;99.90
1225;DHT22;602;48.000;7.840;2023-12-04T12:46:10;5.50;99.90
1225;DHT22;602;48.000;7.840;2023-12-04T12:48:37;5.50;99.90
1225;DHT22;602;48.000;7.840;2023-12-04T12:51:06;5.40;99.90
1225;DHT22;602;48.000;7.840;2023-12-04T12:53:36;5.40;99.90
1225;DHT22;602;48.000;7.840;2023-12-04T12:56:04;5.40;99.90
1225;DHT22;602;48.000;7.840;2023-12-04T12:58:33;5.50;99.90
1225;DHT22;602;48.000;7.840;2023-12-04T13:01:00;5.40;99.90
1225;DHT22;602;48.000;7.840;2023-12-04T13:03:29;5.50;99.90
1225;DHT22;602;48.000;7.840;2023-12-04T13:05:56;5.30;99.90
1225;DHT22;602;48.000;7.840;2023-12-04T13:08:25;5.50;99.90
1225;DHT22;602;48.000;7.840;2023-12-04T13:10:52;5.40;99.90
1225;DHT22;602;48.000;7.840;2023-12-04T13:13:20;5.50;99.90
1225;DHT22;602;48.000;7.840;2023-12-04T13:15:47;5.40;99.90
1225;DHT22;602;48.000;7.840;2023-12-04T13:18:14;5.40;99.90
1225;DHT22;602;48.000;7.840;2023-12-04T13:20:41;5.40;99.90
1225;DHT22;602;48.000;7.840;2023-12-04T13:23:08;5.40;99.90
1225;DHT22;602;48.000;7.840;2023-12-04T13:25:37;5.30;99.90
1225;DHT22;602;48.000;7.840;2023-12-04T13:28:04;5.30;99.90
1225;DHT22;602;48.000;7.840;2023-12-04T13:30:31;5.40;99.90
1225;DHT22;602;48.000;7.840;2023-12-04T13:33:00;5.50;99.90
1225;DHT22;602;48.000;7.840;2023-12-04T13:35:27;5.40;99.90
1225;DHT22;602;48.000;7.840;2023-12-04T13:37:54;5.40;99.90
1225;DHT22;602;48.000;7.840;2023-12-04T13:40:22;5.30;99.90
1225;DHT22;602;48.000;7.840;2023-12-04T13:42:53;5.30;99.90
1225;DHT22;602;48.000;7.840;2023-12-04T13:45:37;5.40;99.90
1225;DHT22;602;48.000;7.840;2023-12-04T13:48:04;5.50;99.90
1225;DHT22;602;48.000;7.840;2023-12-04T13:50:31;5.50;99.90
1225;DHT22;602;48.000;7.840;2023-12-04T13:52:58;5.60;99.90
1225;DHT22;602;48.000;7.840;2023-12-04T13:55:26;5.70;99.90
1225;DHT22;602;48.000;7.840;2023-12-04T13:58:23;5.80;99.90
1225;DHT22;602;48.000;7.840;2023-12-04T14:01:08;5.80;99.90
1225;DHT22;602;48.000;7.840;2023-12-04T14:03:40;5.80;99.90
1225;DHT22;602;48.000;7.840;2023-12-04T14:06:07;5.70;99.90
1225;DHT22;602;48.000;7.840;2023-12-04T14:08:35;5.80;99.90
1225;DHT22;602;48.000;7.840;2023-12-04T14:11:02;5.80;99.90
1225;DHT22;602;48.000;7.840;2023-12-04T14:13:32;5.90;99.90
1225;DHT22;602;48.000;7.840;2023-12-04T14:15:59;6.00;99.90
1225;DHT22;602;48.000;7.840;2023-12-04T14:18:27;5.90;99.90
1225;DHT22;602;48.000;7.840;2023-12-04T14:20:55;6.00;99.90
1225;DHT22;602;48.000;7.840;2023-12-04T14:23:23;5.90;99.90
1225;DHT22;602;48.000;7.840;2023-12-04T14:25:50;5.90;99.90
1225;DHT22;602;48.000;7.840;2023-12-04T14:28:17;5.90;99.90
1225;DHT22;602;48.000;7.840;2023-12-04T14:30:45;5.90;99.90
1225;DHT22;602;48.000;7.840;2023-12-04T14:33:12;5.90;99.90
1225;DHT22;602;48.000;7.840;2023-12-04T14:35:39;5.90;99.90
1225;DHT22;602;48.000;7.840;2023-12-04T14:38:07;6.00;99.90
1225;DHT22;602;48.000;7.840;2023-12-04T14:40:34;6.00;99.90
1225;DHT22;602;48.000;7.840;2023-12-04T14:43:00;6.00;99.90
1225;DHT22;602;48.000;7.840;2023-12-04T14:45:27;6.10;99.90
1225;DHT22;602;48.000;7.840;2023-12-04T14:47:56;6.10;99.90
1225;DHT22;602;48.000;7.840;2023-12-04T14:50:23;6.00;99.90
1225;DHT22;602;48.000;7.840;2023-12-04T14:52:51;6.10;99.90
1225;DHT22;602;48.000;7.840;2023-12-04T14:55:20;6.00;99.90
1225;DHT22;602;48.000;7.840;2023-12-04T14:58:26;6.00;99.90
1225;DHT22;602;48.000;7.840;2023-12-04T15:01:16;6.00;99.90
1225;DHT22;602;48.000;7.840;2023-12-04T15:04:13;6.10;99.90
1225;DHT22;602;48.000;7.840;2023-12-04T15:07:12;6.10;99.90
1225;DHT22;602;48.000;7.840;2023-12-04T15:10:08;6.20;99.90
1225;DHT22;602;48.000;7.840;2023-12-04T15:13:03;6.20;99.90
1225;DHT22;602;48.000;7.840;2023-12-04T15:15:49;6.10;99.90
1225;DHT22;602;48.000;7.840;2023-12-04T15:18:42;6.10;99.90
1225;DHT22;602;48.000;7.840;2023-12-04T15:21:27;6.20;99.90
1225;DHT22;602;48.000;7.840;2023-12-04T15:23:54;6.20;99.90
1225;DHT22;602;48.000;7.840;2023-12-04T15:26:21;6.00;99.90
1225;DHT22;602;48.000;7.840;2023-12-04T15:28:47;6.00;99.90
1225;DHT22;602;48.000;7.840;2023-12-04T15:31:14;6.00;99.90
1225;DHT22;602;48.000;7.840;2023-12-04T15:33:41;6.10;99.90
1225;DHT22;602;48.000;7.840;2023-12-04T15:36:08;6.30;99.90
1225;DHT22;602;48.000;7.840;2023-12-04T15:38:37;6.30;99.90
1225;DHT22;602;48.000;7.840;2023-12-04T15:41:04;6.30;99.90
1225;DHT22;602;48.000;7.840;2023-12-04T15:43:30;6.30;99.90
1225;DHT22;602;48.000;7.840;2023-12-04T15:45:58;6.30;99.90
1225;DHT22;602;48.000;7.840;2023-12-04T15:48:24;6.30;99.90
1225;DHT22;602;48.000;7.840;2023-12-04T15:50:51;6.20;99.90
1225;DHT22;602;48.000;7.840;2023-12-04T15:53:16;6.20;99.90
1225;DHT22;602;48.000;7.840;2023-12-04T15:55:45;6.30;99.90
1225;DHT22;602;48.000;7.840;2023-12-04T15:58:12;6.30;99.90
1225;DHT22;602;48.000;7.840;2023-12-04T16:00:39;6.30;99.90
1225;DHT22;602;48.000;7.840;2023-12-04T16:03:05;6.50;99.90
1225;DHT22;602;48.000;7.840;2023-12-04T16:05:32;6.60;99.90
1225;DHT22;602;48.000;7.840;2023-12-04T16:07:59;6.50;99.90
1225;DHT22;602;48.000;7.840;2023-12-04T16:10:26;6.40;99.90
1225;DHT22;602;48.000;7.840;2023-12-04T16:12:54;6.40;99.90
1225;DHT22;602;48.000;7.840;2023-12-04T16:15:21;6.50;99.90
1225;DHT22;602;48.000;7.840;2023-12-04T16:17:48;6.50;99.90
1225;DHT22;602;48.000;7.840;2023-12-04T16:20:15;6.50;99.90
1225;DHT22;602;48.000;7.840;2023-12-04T16:22:43;6.50;99.90
1225;DHT22;602;48.000;7.840;2023-12-04T16:25:10;6.40;99.90
1225;DHT22;602;48.000;7.840;2023-12-04T16:27:42;6.50;99.90
1225;DHT22;602;48.000;7.840;2023-12-04T16:30:11;6.60;99.90
1225;DHT22;602;48.000;7.840;2023-12-04T16:32:38;6.50;99.90
1225;DHT22;602;48.000;7.840;2023-12-04T16:35:06;6.50;99.90
1225;DHT22;602;48.000;7.840;2023-12-04T16:37:34;6.60;99.90
1225;DHT22;602;48.000;7.840;2023-12-04T16:40:02;6.50;99.90
1225;DHT22;602;48.000;7.840;2023-12-04T16:42:29;6.60;99.90